Time;durP1;ratioP1;P1;durP2;ratioP2;P2;SDS_P1;SDS_P2;PMS_P1;PMS_P2;Temp;Humidity;BMP_temperature;BMP_pressure;BME280_temperature;BME280_humidity;BME280_pressure;Samples;Min_cycle;Max_cycle;Signal;HPM_P1;HPM_P2
2022/04/20 00:01:29;;;;;;;3.53;1.90;;;12.70;62.90;;;;;;4992940;28;20026;-71
2022/04/20 00:03:55;;;;;;;4.73;2.13;;;12.70;63.10;;;;;;4993863;28;20483;-71
2022/04/20 00:06:21;;;;;;;3.73;1.90;;;12.70;63.20;;;;;;4993950;28;20078;-71
2022/04/20 00:08:47;;;;;;;4.07;2.20;;;12.60;63.30;;;;;;4993630;28;20041;-72
2022/04/20 00:11:14;;;;;;;5.83;1.93;;;12.60;63.50;;;;;;4992540;28;20503;-70
2022/04/20 00:13:40;;;;;;;3.50;1.73;;;12.60;63.60;;;;;;4992558;28;20027;-71
2022/04/20 00:16:05;;;;;;;6.50;2.30;;;12.60;63.70;;;;;;4992330;28;20045;-71
2022/04/20 00:18:31;;;;;;;3.90;1.77;;;12.60;63.80;;;;;;4993271;28;20161;-70
2022/04/20 00:20:57;;;;;;;3.63;1.97;;;12.50;63.70;;;;;;4993369;28;20049;-70
2022/04/20 00:23:23;;;;;;;3.73;1.90;;;12.50;63.80;;;;;;4993507;28;20053;-71
2022/04/20 00:25:49;;;;;;;5.33;2.00;;;12.60;63.90;;;;;;4992138;28;20030;-71
2022/04/20 00:28:15;;;;;;;2.83;1.63;;;12.50;64.00;;;;;;4993323;28;20475;-71
2022/04/20 00:30:41;;;;;;;4.40;2.10;;;12.50;64.20;;;;;;4975997;28;20037;-71
2022/04/20 00:33:07;;;;;;;5.77;2.30;;;12.40;64.30;;;;;;4993395;28;20030;-72
2022/04/20 00:35:33;;;;;;;6.47;2.10;;;12.40;64.60;;;;;;4992051;28;20550;-72
2022/04/20 00:37:59;;;;;;;4.53;2.00;;;12.30;64.90;;;;;;4993369;28;20395;-71
2022/04/20 00:40:25;;;;;;;5.23;2.90;;;12.30;65.30;;;;;;4993302;28;20026;-71
2022/04/20 00:42:51;;;;;;;4.97;2.40;;;12.20;65.50;;;;;;4991958;28;20259;-70
2022/04/20 00:45:18;;;;;;;3.53;2.10;;;12.10;65.80;;;;;;4993176;28;20223;-70
2022/04/20 00:47:44;;;;;;;3.50;1.70;;;12.10;66.30;;;;;;4992887;28;20033;-71
2022/04/20 00:50:15;;;;;;;3.50;2.00;;;12.00;66.50;;;;;;4991790;28;20026;-70
2022/04/20 00:52:41;;;;;;;4.60;2.00;;;12.00;66.60;;;;;;4991940;28;20427;-71
2022/04/20 00:55:10;;;;;;;4.70;2.00;;;12.00;66.90;;;;;;4991849;28;20034;-71
2022/04/20 00:57:38;;;;;;;6.27;2.37;;;12.00;67.00;;;;;;4991264;28;20035;-71
2022/04/20 01:00:07;;;;;;;6.10;2.27;;;11.90;67.30;;;;;;4992658;28;20109;-71
2022/04/20 01:02:41;;;;;;;3.03;1.90;;;11.90;67.50;;;;;;4991412;28;20027;-71
2022/04/20 01:05:07;;;;;;;4.47;2.30;;;11.80;67.70;;;;;;4991463;28;20034;-71
2022/04/20 01:07:41;;;;;;;10.10;2.73;;;11.80;67.80;;;;;;4991505;28;20058;-71
2022/04/20 01:10:17;;;;;;;4.33;2.00;;;11.70;67.90;;;;;;4992862;28;20022;-71
2022/04/20 01:13:12;;;;;;;6.30;2.30;;;11.70;68.00;;;;;;4990325;28;20026;-71
2022/04/20 01:15:46;;;;;;;5.50;2.50;;;11.70;68.20;;;;;;4991345;28;20035;-70
2022/04/20 01:18:16;;;;;;;4.88;2.17;;;11.60;68.40;;;;;;4992443;28;20038;-71
2022/04/20 01:21:00;;;;;;;4.13;2.17;;;11.70;68.40;;;;;;4991046;28;20038;-72
2022/04/20 01:24:05;;;;;;;5.00;2.33;;;11.60;68.20;;;;;;4970355;28;20476;-71
2022/04/20 01:26:51;;;;;;;6.67;2.13;;;11.70;68.30;;;;;;4956771;28;20090;-71
2022/04/20 01:29:44;;;;;;;5.83;2.20;;;11.70;68.00;;;;;;4984378;28;20503;-71
2022/04/20 01:32:25;;;;;;;6.30;2.30;;;11.50;68.20;;;;;;4990769;28;20104;-71
2022/04/20 01:35:06;;;;;;;4.40;2.60;;;11.50;68.20;;;;;;4991825;28;20050;-72
2022/04/20 01:37:32;;;;;;;4.77;2.30;;;11.50;68.20;;;;;;4990525;28;20030;-71
2022/04/20 01:39:59;;;;;;;4.60;2.40;;;11.60;68.20;;;;;;4974478;28;20373;-71
2022/04/20 01:42:25;;;;;;;6.73;2.97;;;11.60;68.20;;;;;;4991829;28;20033;-71
2022/04/20 01:44:55;;;;;;;4.00;2.17;;;11.70;68.00;;;;;;4990695;28;20502;-70
2022/04/20 01:47:57;;;;;;;5.73;2.57;;;11.60;68.50;;;;;;4991309;28;20391;-71
2022/04/20 01:54:12;;;;;;;5.23;2.70;;;11.60;67.50;;;;;;4986566;28;20603;-71
2022/04/20 01:56:51;;;;;;;6.70;2.43;;;11.60;67.50;;;;;;4991730;28;20494;-71
2022/04/20 01:59:26;;;;;;;5.30;2.13;;;11.60;67.30;;;;;;4991728;28;20153;-71
2022/04/20 02:02:36;;;;;;;6.03;2.77;;;11.60;67.50;;;;;;4991259;28;20070;-71
2022/04/20 02:05:22;;;;;;;4.57;2.50;;;11.60;67.70;;;;;;4991386;28;20065;-71
2022/04/20 02:07:50;;;;;;;5.93;2.60;;;11.60;67.60;;;;;;4990255;28;20065;-71
2022/04/20 02:10:22;;;;;;;5.67;2.50;;;11.60;67.60;;;;;;4990500;28;20113;-72
2022/04/20 02:12:48;;;;;;;7.73;2.80;;;11.60;67.60;;;;;;4990238;28;20388;-71
2022/04/20 02:15:37;;;;;;;;;;;11.60;67.70;;;;;;4991451;28;20096;-71
2022/04/20 02:18:03;;;;;;;6.87;2.90;;;11.60;67.90;;;;;;4991587;28;20386;-71
2022/04/20 02:20:47;;;;;;;9.90;3.50;;;11.60;67.90;;;;;;4976081;28;20030;-71
2022/04/20 02:23:13;;;;;;;8.43;3.10;;;11.60;67.70;;;;;;4989987;28;20027;-71
2022/04/20 02:25:39;;;;;;;7.37;3.40;;;11.60;67.90;;;;;;4994931;28;20487;-71
2022/04/20 02:28:05;;;;;;;5.90;3.00;;;11.60;68.00;;;;;;4993827;28;20030;-71
2022/04/20 02:30:31;;;;;;;7.60;3.00;;;11.60;67.90;;;;;;4994057;28;20023;-71
2022/04/20 02:32:57;;;;;;;8.80;3.30;;;11.60;67.90;;;;;;4993816;28;20531;-71
2022/04/20 02:35:23;;;;;;;6.90;2.90;;;11.60;68.00;;;;;;5016053;22;20045;-81
2022/04/20 02:37:49;;;;;;;5.37;2.50;;;11.60;68.10;;;;;;4993133;28;20026;-83
2022/04/20 02:40:16;;;;;;;7.10;3.00;;;11.50;68.30;;;;;;4993718;28;20481;-83
2022/04/20 02:42:42;;;;;;;4.27;2.53;;;11.50;68.50;;;;;;4993217;28;20113;-83
2022/04/20 02:45:08;;;;;;;8.27;3.13;;;11.50;68.60;;;;;;4993439;28;20551;-83
2022/04/20 02:47:35;;;;;;;7.23;3.10;;;11.50;68.90;;;;;;4994367;28;20388;-81
2022/04/20 02:50:01;;;;;;;4.93;2.43;;;11.50;69.00;;;;;;4993383;28;20125;-83
2022/04/20 02:52:26;;;;;;;4.70;2.60;;;11.40;69.20;;;;;;4994336;28;20018;-83
2022/04/20 02:54:53;;;;;;;5.47;2.90;;;11.40;69.30;;;;;;4993000;28;20113;-81
2022/04/20 02:57:19;;;;;;;7.13;3.40;;;11.30;69.40;;;;;;4993347;28;20466;-81
2022/04/20 02:59:48;;;;;;;5.00;3.00;;;11.30;69.50;;;;;;4993155;28;20030;-81
2022/04/20 03:02:15;;;;;;;4.60;2.50;;;11.30;69.50;;;;;;4976967;28;20030;-81
2022/04/20 03:04:41;;;;;;;4.87;2.70;;;11.20;69.50;;;;;;4993035;28;20619;-81
2022/04/20 03:07:07;;;;;;;5.43;2.70;;;11.20;69.50;;;;;;4992685;28;20558;-83
2022/04/20 03:09:49;;;;;;;4.80;3.00;;;11.20;69.50;;;;;;4979133;28;20034;-83
2022/04/20 03:12:16;;;;;;;5.37;3.20;;;11.20;69.60;;;;;;4992845;28;20022;-83
2022/04/20 03:14:51;;;;;;;6.17;3.03;;;11.10;69.70;;;;;;4992799;28;20030;-83
2022/04/20 03:17:18;;;;;;;6.40;3.05;;;11.10;69.90;;;;;;4992847;28;20353;-83
2022/04/20 03:19:44;;;;;;;4.83;2.60;;;11.10;69.90;;;;;;4992819;28;20427;-81
2022/04/20 03:22:10;;;;;;;6.43;2.70;;;11.10;70.10;;;;;;4993793;28;20037;-81
2022/04/20 03:24:36;;;;;;;5.60;2.97;;;11.00;70.20;;;;;;4992591;28;20045;-83
2022/04/20 03:27:12;;;;;;;5.30;2.60;;;11.10;70.30;;;;;;4977753;28;20045;-83
2022/04/20 03:29:44;;;;;;;6.77;2.97;;;11.00;70.40;;;;;;4992739;28;20022;-83
2022/04/20 03:32:12;;;;;;;6.07;2.97;;;11.00;70.60;;;;;;4992230;28;20141;-81
2022/04/20 03:34:40;;;;;;;7.73;2.80;;;10.90;70.60;;;;;;4992109;28;20457;-83
2022/04/20 03:37:06;;;;;;;6.20;3.13;;;10.90;70.80;;;;;;4992385;28;20402;-83
2022/04/20 03:39:37;;;;;;;5.57;2.87;;;10.90;71.10;;;;;;4992355;28;20035;-83
2022/04/20 03:42:04;;;;;;;6.70;3.47;;;10.90;71.10;;;;;;4992097;28;20026;-83
2022/04/20 03:44:30;;;;;;;5.83;3.13;;;10.80;71.40;;;;;;4993779;28;20350;-83
2022/04/20 03:46:56;;;;;;;6.80;2.57;;;10.80;71.60;;;;;;4992466;28;20070;-83
2022/04/20 03:49:23;;;;;;;4.97;2.83;;;10.70;71.80;;;;;;4993546;28;20049;-83
2022/04/20 03:51:48;;;;;;;5.07;2.90;;;10.70;71.80;;;;;;4992140;28;20035;-83
2022/04/20 03:54:18;;;;;;;7.37;3.40;;;10.70;71.90;;;;;;4992318;28;20035;-83
2022/04/20 03:59:33;;;;;;;6.10;2.80;;;10.60;72.30;;;;;;4992075;28;20057;-83
2022/04/20 04:02:00;;;;;;;7.43;2.93;;;10.60;72.50;;;;;;4991973;28;20080;-83
2022/04/20 04:04:27;;;;;;;7.13;2.90;;;10.60;72.60;;;;;;4991969;28;20030;-83
2022/04/20 04:06:57;;;;;;;6.90;3.23;;;10.50;72.70;;;;;;4991523;28;20030;-83
2022/04/20 04:09:23;;;;;;;4.40;2.67;;;10.50;72.60;;;;;;4991661;28;20504;-83
2022/04/20 04:11:50;;;;;;;7.93;3.43;;;10.50;72.80;;;;;;4991554;28;20129;-83
2022/04/20 04:14:18;;;;;;;6.13;3.25;;;10.50;72.80;;;;;;4991563;28;20349;-83
2022/04/20 04:16:44;;;;;;;5.77;3.10;;;10.50;73.00;;;;;;4991655;28;20038;-83
2022/04/20 04:19:11;;;;;;;8.33;3.30;;;10.50;72.90;;;;;;4991684;28;20117;-83
2022/04/20 04:21:39;;;;;;;5.87;2.97;;;10.50;73.00;;;;;;4991540;28;20031;-83
2022/04/20 04:24:07;;;;;;;6.50;3.70;;;10.40;73.10;;;;;;4991443;28;20034;-83
2022/04/20 04:26:41;;;;;;;8.13;3.27;;;10.40;73.20;;;;;;4975865;28;20034;-83
2022/04/20 04:29:07;;;;;;;6.43;3.60;;;10.50;73.30;;;;;;4991390;28;20048;-83
2022/04/20 04:31:37;;;;;;;7.77;3.03;;;10.50;73.30;;;;;;4991362;28;20026;-83
2022/04/20 04:34:03;;;;;;;6.47;3.23;;;10.40;73.20;;;;;;4991229;28;20033;-83
2022/04/20 04:36:29;;;;;;;6.87;3.10;;;10.40;73.20;;;;;;4991104;28;20491;-83
2022/04/20 04:38:57;;;;;;;8.25;2.92;;;10.50;73.30;;;;;;4991136;28;20487;-83
2022/04/20 04:41:30;;;;;;;6.47;3.23;;;10.40;73.20;;;;;;4991318;28;20293;-83
2022/04/20 04:43:59;;;;;;;7.93;3.20;;;10.40;73.20;;;;;;4991069;28;20031;-83
2022/04/20 04:49:15;;;;;;;9.00;3.63;;;10.40;73.40;;;;;;4990961;28;20031;-83
2022/04/20 04:51:41;;;;;;;5.00;3.30;;;10.40;73.60;;;;;;4990793;28;20041;-83
2022/04/20 04:54:08;;;;;;;6.37;3.50;;;10.30;73.80;;;;;;4990883;28;20026;-83
2022/04/20 04:56:34;;;;;;;6.73;3.40;;;10.30;73.90;;;;;;4990699;28;20034;-83
2022/04/20 04:59:00;;;;;;;8.30;3.80;;;10.30;74.00;;;;;;4990758;28;20030;-83
2022/04/20 05:01:28;;;;;;;6.90;3.57;;;10.30;73.90;;;;;;4990699;28;20494;-83
2022/04/20 05:03:57;;;;;;;6.97;3.15;;;10.30;74.10;;;;;;4990713;28;20085;-83
2022/04/20 05:06:23;;;;;;;7.07;3.17;;;10.30;74.10;;;;;;4990459;28;20042;-83
2022/04/20 05:08:57;;;;;;;12.30;4.20;;;10.30;74.10;;;;;;4990929;28;20475;-83
2022/04/20 05:11:23;;;;;;;8.17;3.60;;;10.30;74.20;;;;;;4990631;28;20080;-83
2022/04/20 05:13:49;;;;;;;7.57;3.30;;;10.30;74.30;;;;;;4990634;28;20034;-83
2022/04/20 05:16:15;;;;;;;9.17;3.40;;;10.40;74.20;;;;;;4990676;28;20038;-83
2022/04/20 05:18:41;;;;;;;10.70;3.90;;;10.40;74.20;;;;;;4990189;28;20129;-83
2022/04/20 05:21:07;;;;;;;7.93;3.20;;;10.40;74.00;;;;;;4990566;28;20041;-83
2022/04/20 05:23:33;;;;;;;6.50;3.33;;;10.40;73.80;;;;;;4974343;28;20027;-83
2022/04/20 05:25:58;;;;;;;7.10;3.80;;;10.40;73.80;;;;;;4991524;28;20038;-83
2022/04/20 05:28:24;;;;;;;8.57;3.60;;;10.50;73.60;;;;;;4990281;28;20026;-82
2022/04/20 05:30:51;;;;;;;9.50;3.97;;;10.50;73.50;;;;;;4990320;28;20048;-82
2022/04/20 05:33:17;;;;;;;8.77;3.77;;;10.50;73.30;;;;;;4973885;28;20057;-83
2022/04/20 05:35:43;;;;;;;7.00;3.50;;;10.60;73.20;;;;;;4990267;28;20095;-83
2022/04/20 05:43:44;;;;;;;7.07;3.30;;;10.70;73.30;;;;;;4990053;28;20034;-82
2022/04/20 05:46:16;;;;;;;8.30;3.70;;;10.70;73.20;;;;;;4990336;28;20478;-83
2022/04/20 05:49:02;;;;;;;6.40;3.67;;;10.70;73.20;;;;;;4990033;28;20450;-83
2022/04/20 05:51:28;;;;;;;8.33;4.70;;;10.70;73.10;;;;;;4973895;28;20031;-83
2022/04/20 05:53:54;;;;;;;7.60;4.17;;;10.70;73.10;;;;;;4990007;28;20486;-83
2022/04/20 05:56:22;;;;;;;12.23;3.90;;;10.90;72.90;;;;;;4990307;28;20277;-83
2022/04/20 05:58:52;;;;;;;9.63;3.43;;;10.90;72.60;;;;;;4990221;28;20314;-83
2022/04/20 06:01:22;;;;;;;10.03;3.90;;;11.00;72.70;;;;;;4995527;28;20034;-83
2022/04/20 06:03:49;;;;;;;;;;;10.90;72.60;;;;;;4995803;28;20038;-83
2022/04/20 06:06:28;;;;;;;9.07;3.75;;;11.00;72.80;;;;;;4993821;28;19918;-83
2022/04/20 06:08:55;;;;;;;8.60;3.80;;;11.00;72.60;;;;;;4993817;28;20038;-83
2022/04/20 06:11:45;;;;;;;7.10;3.47;;;11.10;72.60;;;;;;4994679;28;20031;-83
2022/04/20 06:14:16;;;;;;;8.77;3.37;;;11.10;72.40;;;;;;4993850;28;20104;-83
2022/04/20 06:16:47;;;;;;;10.03;3.47;;;11.20;72.40;;;;;;4993716;28;20030;-83
2022/04/20 06:19:20;;;;;;;8.97;3.83;;;11.20;72.20;;;;;;4993649;28;20427;-83
2022/04/20 06:22:04;;;;;;;6.97;3.50;;;11.30;72.50;;;;;;4993569;28;20033;-82
2022/04/20 06:24:59;;;;;;;11.43;3.87;;;11.30;71.50;;;;;;4990420;28;20027;-81
2022/04/20 06:27:38;;;;;;;7.75;4.03;;;11.40;71.10;;;;;;4993374;28;20027;-82
2022/04/20 06:30:23;;;;;;;6.60;4.00;;;11.40;70.90;;;;;;4993723;28;20497;-81
2022/04/20 06:33:06;;;;;;;6.07;3.47;;;11.50;70.70;;;;;;4993521;28;20023;-82
2022/04/20 06:35:51;;;;;;;7.13;3.80;;;11.50;70.90;;;;;;4994759;28;20088;-82
2022/04/20 06:38:33;;;;;;;7.87;4.23;;;11.60;70.80;;;;;;4993250;28;20045;-82
2022/04/20 06:41:06;;;;;;;7.67;3.80;;;11.60;70.90;;;;;;4993478;28;20066;-83
2022/04/20 06:43:57;;;;;;;8.18;3.85;;;11.70;70.90;;;;;;4980271;28;20041;-82
2022/04/20 06:46:33;;;;;;;7.27;3.50;;;11.70;70.90;;;;;;4993111;28;20057;-82
2022/04/20 06:49:17;;;;;;;8.30;4.00;;;11.80;71.10;;;;;;4993464;28;20058;-83
2022/04/20 07:00:19;;;;;;;7.20;3.27;;;11.90;70.40;;;;;;4993372;28;20030;-83
2022/04/20 07:03:12;;;;;;;5.17;3.30;;;11.90;70.40;;;;;;4985719;28;20034;-83
2022/04/20 07:05:38;;;;;;;7.60;3.27;;;12.00;70.40;;;;;;4994669;28;20038;-83
2022/04/20 07:08:22;;;;;;;8.10;3.20;;;12.00;70.00;;;;;;4979245;28;20493;-84
2022/04/20 07:10:48;;;;;;;7.07;3.27;;;12.10;70.00;;;;;;4992672;28;20023;-81
2022/04/20 07:13:16;;;;;;;7.63;3.03;;;12.20;70.20;;;;;;4976643;28;20026;-81
2022/04/20 07:15:42;;;;;;;4.97;2.60;;;12.20;70.30;;;;;;4992944;28;20501;-83
2022/04/20 07:18:09;;;;;;;6.87;3.10;;;12.30;70.10;;;;;;4992614;28;20030;-81
2022/04/20 07:20:53;;;;;;;9.30;3.40;;;12.30;69.60;;;;;;4994337;28;20088;-81
2022/04/20 07:23:38;;;;;;;5.23;2.80;;;12.40;69.30;;;;;;4993910;28;20125;-82
2022/04/20 07:26:26;;;;;;;6.80;2.93;;;12.40;69.10;;;;;;4993937;28;20158;-82
2022/04/20 07:29:30;;;;;;;7.73;3.00;;;12.50;69.00;;;;;;4992473;28;20026;-82
2022/04/20 07:32:21;;;;;;;6.13;2.87;;;12.50;68.80;;;;;;4992442;28;20030;-82
2022/04/20 07:34:59;;;;;;;4.27;2.50;;;12.60;68.50;;;;;;4992323;28;20038;-82
2022/04/20 07:37:50;;;;;;;5.50;2.70;;;12.70;67.60;;;;;;4992396;28;20034;-82
2022/04/20 07:40:34;;;;;;;5.50;2.60;;;12.70;67.40;;;;;;4993652;28;20533;-82
2022/04/20 07:43:23;;;;;;;;;;;12.80;66.90;;;;;;4992633;28;20081;-82
2022/04/20 07:46:02;;;;;;;4.55;2.30;;;12.70;66.50;;;;;;4992041;28;20029;-82
2022/04/20 07:48:49;;;;;;;3.73;2.30;;;12.70;66.60;;;;;;4981908;28;20550;-82
2022/04/20 07:51:40;;;;;;;6.20;2.37;;;12.80;66.50;;;;;;4992022;28;20084;-82
2022/04/20 07:54:31;;;;;;;4.70;2.20;;;12.80;66.40;;;;;;4979246;28;20030;-82
2022/04/20 07:57:26;;;;;;;3.70;1.90;;;12.80;66.50;;;;;;4991793;28;20482;-82
2022/04/20 08:00:12;;;;;;;4.87;2.43;;;12.90;66.60;;;;;;4993600;28;20134;-82
2022/04/20 08:03:13;;;;;;;5.63;2.50;;;13.00;66.40;;;;;;4992879;28;20114;-82
2022/04/20 08:05:40;;;;;;;6.40;2.42;;;13.00;65.90;;;;;;4975453;28;20478;-82
2022/04/20 08:08:09;;;;;;;7.53;2.40;;;13.00;66.00;;;;;;4991607;28;20034;-82
2022/04/20 08:10:35;;;;;;;5.77;2.40;;;13.10;66.30;;;;;;4975478;28;20030;-82
2022/04/20 08:14:09;;;;;;;6.07;2.50;;;13.10;66.50;;;;;;4992888;28;20116;-83
2022/04/20 08:15:47;;;;;;;4.87;2.50;;;13.10;66.30;;;;;;4991298;28;20030;-83
2022/04/20 08:18:13;;;;;;;4.07;2.30;;;13.10;66.40;;;;;;4991586;28;20426;-83
2022/04/20 08:20:58;;;;;;;5.63;2.80;;;13.20;66.10;;;;;;4992927;28;20297;-83
2022/04/20 08:23:26;;;;;;;7.73;3.27;;;13.20;64.80;;;;;;4991867;28;20030;-83
2022/04/20 08:25:52;;;;;;;6.75;3.00;;;13.20;64.70;;;;;;4992644;28;20451;-82
2022/04/20 08:28:18;;;;;;;5.43;2.53;;;13.30;65.20;;;;;;4992327;28;20069;-83
2022/04/20 08:30:44;;;;;;;5.73;2.33;;;13.30;65.50;;;;;;4992914;28;20088;-83
2022/04/20 08:33:10;;;;;;;6.07;2.70;;;13.40;64.70;;;;;;4992609;28;20037;-83
2022/04/20 08:35:36;;;;;;;5.57;3.10;;;13.40;65.10;;;;;;5005969;22;20046;-79
2022/04/20 08:38:03;;;;;;;6.93;3.20;;;13.40;63.80;;;;;;4991914;28;20487;-79
2022/04/20 08:40:29;;;;;;;5.77;2.60;;;13.40;63.00;;;;;;4992442;28;20171;-79
2022/04/20 08:42:57;;;;;;;4.23;2.67;;;13.40;63.40;;;;;;4992254;28;20034;-79
2022/04/20 08:45:24;;;;;;;7.30;2.90;;;13.40;63.60;;;;;;4992253;28;20455;-79
2022/04/20 08:47:50;;;;;;;4.27;2.23;;;13.50;63.70;;;;;;4992379;28;20376;-79
2022/04/20 08:50:16;;;;;;;4.93;2.23;;;13.50;62.80;;;;;;4992349;28;20403;-79
2022/04/20 08:52:46;;;;;;;3.03;2.10;;;13.50;62.10;;;;;;4992029;28;20035;-78
2022/04/20 08:55:15;;;;;;;3.00;1.53;;;13.60;61.90;;;;;;4992284;28;20034;-79
2022/04/20 08:57:43;;;;;;;4.47;1.43;;;13.50;60.90;;;;;;4991922;28;20026;-79
2022/04/20 09:00:27;;;;;;;3.47;1.75;;;13.60;61.10;;;;;;4992125;28;20044;-79
2022/04/20 09:03:01;;;;;;;6.40;2.03;;;13.60;61.60;;;;;;4991966;28;20113;-79
2022/04/20 09:05:29;;;;;;;5.32;1.92;;;13.70;61.80;;;;;;4990761;28;20035;-79
2022/04/20 09:07:55;;;;;;;5.27;1.77;;;13.80;61.90;;;;;;4991662;28;20037;-79
2022/04/20 09:10:22;;;;;;;3.50;2.03;;;13.80;61.70;;;;;;4974511;28;20113;-79
2022/04/20 09:13:05;;;;;;;5.00;2.10;;;13.80;61.60;;;;;;4974261;28;20158;-79
2022/04/20 09:15:32;;;;;;;3.75;2.08;;;13.90;61.80;;;;;;4990459;28;20045;-79
2022/04/20 09:18:01;;;;;;;5.53;2.30;;;13.90;62.10;;;;;;4991639;28;20038;-79
2022/04/20 09:20:27;;;;;;;;;;;13.90;62.10;;;;;;4992116;28;20034;-79
2022/04/20 09:23:02;;;;;;;4.15;2.30;;;13.90;61.80;;;;;;4991495;28;19906;-79
2022/04/20 09:25:34;;;;;;;4.75;2.40;;;13.90;62.20;;;;;;4991598;28;20042;-79
2022/04/20 09:28:01;;;;;;;7.18;3.15;;;14.00;62.50;;;;;;4990354;28;20443;-79
2022/04/20 09:30:39;;;;;;;7.40;3.10;;;14.00;62.30;;;;;;4990301;28;20022;-79
2022/04/20 09:33:10;;;;;;;8.77;3.25;;;14.10;62.40;;;;;;4991351;28;20049;-79
2022/04/20 09:35:53;;;;;;;6.10;2.92;;;14.10;62.30;;;;;;4991301;28;20439;-79
2022/04/20 09:38:23;;;;;;;6.13;2.90;;;14.10;62.00;;;;;;4990097;28;20039;-79
2022/04/20 09:41:11;;;;;;;6.60;3.40;;;14.10;61.80;;;;;;4990222;28;20507;-79
2022/04/20 09:43:38;;;;;;;6.40;3.05;;;14.20;61.10;;;;;;4991181;28;20026;-79
2022/04/20 09:49:05;;;;;;;7.07;2.78;;;14.20;61.00;;;;;;4969717;28;20049;-79
2022/04/20 09:51:42;;;;;;;4.93;2.10;;;14.20;60.80;;;;;;4989883;28;20154;-78
2022/04/20 09:54:28;;;;;;;5.07;2.42;;;14.20;61.10;;;;;;4991247;28;20049;-79
2022/04/20 09:57:20;;;;;;;5.15;2.20;;;14.20;61.70;;;;;;4990016;28;20031;-78
2022/04/20 10:00:02;;;;;;;5.38;2.17;;;14.20;62.70;;;;;;4989240;28;20046;-79
2022/04/20 10:02:52;;;;;;;5.07;2.80;;;14.20;61.90;;;;;;4991034;28;20494;-80
2022/04/20 10:05:23;;;;;;;6.80;2.80;;;14.30;61.80;;;;;;4991140;28;20034;-79
2022/04/20 10:07:49;;;;;;;6.05;3.50;;;14.30;61.60;;;;;;4989830;28;20030;-79
2022/04/20 10:10:14;;;;;;;6.68;3.30;;;14.30;61.40;;;;;;4991193;28;20022;-79
2022/04/20 10:12:42;;;;;;;5.93;3.55;;;14.30;61.40;;;;;;4991327;28;20026;-79
2022/04/20 10:17:56;;;;;;;6.78;2.58;;;14.30;61.80;;;;;;4991007;28;20327;-79
2022/04/20 10:20:26;;;;;;;3.45;2.22;;;14.30;62.00;;;;;;4989926;28;20058;-79
2022/04/20 10:22:58;;;;;;;6.72;2.80;;;14.40;61.50;;;;;;4990954;28;20034;-78
2022/04/20 10:25:24;;;;;;;7.50;3.13;;;14.40;61.70;;;;;;4991125;28;20030;-78
2022/04/20 10:28:45;;;;;;;4.38;2.67;;;14.50;61.50;;;;;;4990775;28;20514;-78
2022/04/20 10:31:22;;;;;;;5.65;2.63;;;14.50;61.70;;;;;;4949631;29;20444;-78
2022/04/20 10:33:56;;;;;;;6.18;3.05;;;14.50;61.70;;;;;;4989787;28;20158;-78
2022/04/20 10:36:35;;;;;;;6.57;3.05;;;14.60;61.30;;;;;;4989411;28;20034;-78
2022/04/20 10:39:16;;;;;;;4.78;2.42;;;14.60;62.40;;;;;;4989709;28;20034;-78
2022/04/20 10:42:11;;;;;;;7.05;2.50;;;14.60;61.20;;;;;;4989335;28;20397;-78
2022/04/20 10:45:07;;;;;;;7.05;2.53;;;14.50;61.10;;;;;;4989562;28;20038;-78
2022/04/20 10:47:42;;;;;;;6.03;2.50;;;14.60;60.90;;;;;;4994377;28;20062;-78
2022/04/20 10:50:29;;;;;;;3.80;2.17;;;14.60;61.20;;;;;;4994605;28;20042;-78
2022/04/20 10:55:31;;;;;;;5.07;2.60;;;14.70;60.00;;;;;;4993029;28;20030;-78
2022/04/20 10:58:02;;;;;;;5.75;2.63;;;14.80;60.80;;;;;;4994196;28;20402;-78
2022/04/20 11:00:36;;;;;;;3.75;2.03;;;14.80;60.80;;;;;;4994452;28;20022;-79
2022/04/20 11:03:06;;;;;;;5.18;2.10;;;14.80;60.70;;;;;;4994151;28;20463;-78
2022/04/20 11:05:48;;;;;;;4.57;2.28;;;14.80;60.90;;;;;;4994144;28;20039;-78
2022/04/20 11:08:16;;;;;;;4.75;2.40;;;14.80;60.50;;;;;;4993986;28;20113;-78
2022/04/20 11:18:38;;;;;;;4.93;2.17;;;14.80;60.70;;;;;;4994122;28;20061;-78
2022/04/20 11:19:11;;;;;;;6.38;2.38;;;14.90;60.60;;;;;;4992616;28;20380;-78
2022/04/20 11:22:12;;;;;;;3.63;2.30;;;15.00;60.10;;;;;;4989665;28;20041;-78
2022/04/20 11:24:38;;;;;;;5.00;2.67;;;15.00;59.70;;;;;;4993719;28;20548;-78
2022/04/20 11:27:04;;;;;;;6.53;2.85;;;15.10;59.40;;;;;;4993641;28;20045;-78
2022/04/20 11:29:30;;;;;;;6.07;2.20;;;15.10;59.30;;;;;;4994191;28;20093;-78
2022/04/20 11:32:04;;;;;;;4.07;2.40;;;15.10;59.90;;;;;;4993559;28;20043;-78
2022/04/20 11:34:45;;;;;;;3.42;2.33;;;15.10;59.10;;;;;;4992100;28;20037;-78
2022/04/20 11:37:10;;;;;;;3.83;2.00;;;15.10;59.30;;;;;;4993485;28;20391;-78
2022/04/20 11:39:36;;;;;;;4.63;2.08;;;15.10;59.40;;;;;;4993632;28;20050;-78
2022/04/20 11:42:06;;;;;;;5.97;2.72;;;15.10;59.40;;;;;;4992300;28;20512;-79
2022/04/20 11:44:41;;;;;;;8.15;3.13;;;15.10;59.40;;;;;;4993335;28;20034;-78
2022/04/20 11:47:27;;;;;;;4.30;2.53;;;15.10;59.30;;;;;;4991891;28;20042;-78
2022/04/20 11:49:56;;;;;;;7.07;2.10;;;15.20;59.20;;;;;;4993334;28;20026;-78
2022/04/20 11:52:26;;;;;;;6.43;2.10;;;15.10;59.10;;;;;;4992003;28;20053;-78
2022/04/20 11:55:20;;;;;;;3.13;2.00;;;15.20;59.90;;;;;;4993186;28;20034;-79
2022/04/20 11:57:46;;;;;;;4.75;1.95;;;15.20;59.50;;;;;;4991729;28;20215;-79
2022/04/20 12:00:12;;;;;;;4.30;2.03;;;15.30;58.40;;;;;;4993147;28;20029;-78
2022/04/20 12:02:38;;;;;;;5.10;1.77;;;15.40;57.50;;;;;;4993112;28;20046;-78
2022/04/20 12:05:09;;;;;;;3.45;1.90;;;15.40;58.30;;;;;;4991573;28;20035;-78
2022/04/20 12:07:35;;;;;;;4.10;2.20;;;15.40;58.30;;;;;;4992896;28;20034;-78
2022/04/20 12:10:03;;;;;;;5.05;2.20;;;15.40;58.00;;;;;;4993165;28;20105;-78
2022/04/20 12:12:30;;;;;;;4.80;2.40;;;15.40;58.20;;;;;;4993110;28;20030;-78
2022/04/20 12:15:05;;;;;;;5.07;2.53;;;15.40;58.80;;;;;;4992735;28;20149;-78
2022/04/20 12:17:31;;;;;;;7.43;3.30;;;15.40;59.90;;;;;;4992595;28;20533;-78
2022/04/20 12:19:57;;;;;;;7.90;2.58;;;15.50;59.00;;;;;;4991451;28;20038;-79
2022/04/20 12:22:23;;;;;;;6.90;2.47;;;15.50;58.50;;;;;;4991230;28;20425;-79
2022/04/20 12:25:04;;;;;;;4.15;2.03;;;15.60;58.90;;;;;;4992565;28;20114;-79
2022/04/20 12:27:29;;;;;;;4.72;1.80;;;15.60;59.40;;;;;;4992513;28;20034;-79
2022/04/20 12:29:58;;;;;;;4.00;1.95;;;15.60;58.70;;;;;;4991256;28;20034;-78
2022/04/20 12:32:32;;;;;;;4.55;1.85;;;15.60;58.50;;;;;;4992511;28;20041;-78
2022/04/20 12:35:01;;;;;;;3.40;1.70;;;15.60;59.00;;;;;;4992508;28;20121;-79
2022/04/20 12:37:29;;;;;;;4.47;2.03;;;15.60;59.00;;;;;;4991002;28;20031;-79
2022/04/20 12:40:18;;;;;;;3.00;2.20;;;15.60;59.10;;;;;;4975114;28;20036;-79
2022/04/20 12:43:01;;;;;;;3.85;2.10;;;15.70;59.60;;;;;;4992116;28;20043;-78
2022/04/20 12:45:27;;;;;;;3.92;2.78;;;15.70;60.20;;;;;;4990900;28;20034;-78
2022/04/20 12:48:05;;;;;;;6.13;2.60;;;15.70;60.20;;;;;;4992161;28;20073;-78
2022/04/20 12:50:44;;;;;;;3.55;2.03;;;15.80;59.60;;;;;;4992432;28;20077;-78
2022/04/20 12:53:10;;;;;;;3.40;2.25;;;15.80;60.70;;;;;;4992066;28;20037;-79
2022/04/20 13:02:01;;;;;;;4.05;2.17;;;15.90;59.80;;;;;;4992074;28;20110;-78
2022/04/20 13:04:14;;;;;;;4.57;2.42;;;15.90;60.80;;;;;;4991892;28;20038;-78
2022/04/20 13:06:39;;;;;;;3.58;2.17;;;16.00;60.20;;;;;;4991570;28;20035;-78
2022/04/20 13:09:05;;;;;;;5.57;2.70;;;16.00;59.80;;;;;;4991469;28;20098;-79
2022/04/20 13:11:31;;;;;;;6.15;2.70;;;16.00;59.80;;;;;;4991864;28;20552;-78
2022/04/20 13:13:57;;;;;;;5.05;2.72;;;16.00;59.60;;;;;;4991781;28;20493;-78
2022/04/20 13:16:23;;;;;;;5.28;3.00;;;16.00;60.20;;;;;;4991656;28;20058;-78
2022/04/20 13:18:48;;;;;;;4.93;2.10;;;16.10;60.40;;;;;;4991611;28;20034;-78
2022/04/20 13:21:14;;;;;;;3.47;1.77;;;16.10;59.70;;;;;;4991767;28;20026;-78
2022/04/20 13:23:40;;;;;;;7.75;1.90;;;16.20;59.40;;;;;;4991841;28;20030;-78
2022/04/20 13:28:49;;;;;;;6.22;1.83;;;16.20;59.20;;;;;;4990112;28;20498;-78
2022/04/20 13:31:16;;;;;;;4.35;1.80;;;16.20;59.50;;;;;;4991593;28;20109;-78
2022/04/20 13:33:42;;;;;;;4.53;1.98;;;16.20;59.40;;;;;;4991520;28;20081;-78
2022/04/20 13:36:09;;;;;;;3.08;1.85;;;16.30;58.70;;;;;;4991318;28;20034;-78
2022/04/20 13:38:35;;;;;;;3.97;2.20;;;16.30;58.90;;;;;;4991282;28;20479;-78
2022/04/20 13:41:01;;;;;;;6.45;2.97;;;16.30;59.10;;;;;;4991291;28;20031;-78
2022/04/20 13:43:27;;;;;;;4.85;3.47;;;16.30;59.60;;;;;;4991209;28;20030;-78
2022/04/20 13:45:53;;;;;;;6.82;3.10;;;16.30;59.80;;;;;;4991245;28;20089;-78
2022/04/20 13:48:18;;;;;;;6.85;3.28;;;16.30;60.50;;;;;;4991297;28;20026;-78
2022/04/20 13:50:47;;;;;;;4.88;2.50;;;16.40;61.40;;;;;;4991380;28;20486;-78
2022/04/20 13:53:13;;;;;;;6.57;3.72;;;16.30;61.40;;;;;;4991199;28;20030;-78
2022/04/20 13:55:39;;;;;;;4.43;2.58;;;16.40;60.70;;;;;;4991110;28;20054;-78
2022/04/20 13:58:07;;;;;;;5.05;2.70;;;16.40;60.80;;;;;;4990977;28;20037;-78
2022/04/20 14:00:33;;;;;;;6.20;2.85;;;16.40;60.50;;;;;;4991324;28;20030;-79